Time;durP1;ratioP1;P1;durP2;ratioP2;P2;SDS_P1;SDS_P2;PMS_P1;PMS_P2;Temp;Humidity;BMP_temperature;BMP_pressure;BME280_temperature;BME280_humidity;BME280_pressure;Samples;Min_cycle;Max_cycle;Signal;HPM_P1;HPM_P2
2023/05/02 00:00:53;;;;;;;16.25;13.57;;;;;;;14.64;59.59;100479.59;5051929;28;20057;-58
2023/05/02 00:03:20;;;;;;;16.08;13.55;;;;;;;14.66;59.03;100476.41;5051953;28;20052;-58
2023/05/02 00:05:48;;;;;;;15.38;13.77;;;;;;;14.60;59.89;100485.03;5052452;28;20053;-58
2023/05/02 00:08:16;;;;;;;19.83;15.68;;;;;;;14.61;59.90;100481.09;5052136;28;20466;-58
2023/05/02 00:10:44;;;;;;;15.52;13.50;;;;;;;14.61;59.49;100475.50;5051025;28;20049;-58
2023/05/02 00:13:11;;;;;;;17.60;14.98;;;;;;;14.60;59.90;100476.63;5035583;28;20103;-58
2023/05/02 00:15:38;;;;;;;17.80;15.15;;;;;;;14.54;59.35;100480.78;5035881;28;20064;-58
2023/05/02 00:18:05;;;;;;;16.90;15.18;;;;;;;14.54;59.15;100482.75;5035946;28;20054;-58
2023/05/02 00:20:33;;;;;;;18.25;16.05;;;;;;;14.54;59.14;100486.38;5036275;28;20056;-58
2023/05/02 00:23:00;;;;;;;16.77;15.02;;;;;;;14.47;59.59;100479.66;5035818;28;20053;-58
2023/05/02 00:25:28;;;;;;;16.80;15.00;;;;;;;14.49;60.34;100477.34;5036372;28;20069;-59
2023/05/02 00:27:56;;;;;;;18.88;16.50;;;;;;;14.35;60.21;100478.44;5055661;28;20053;-58
2023/05/02 00:30:23;;;;;;;16.17;14.52;;;;;;;14.28;59.97;100482.91;5055956;28;20409;-58
2023/05/02 00:32:53;;;;;;;19.52;17.42;;;;;;;14.18;60.08;100487.78;5055770;28;20052;-58
2023/05/02 00:35:20;;;;;;;17.50;15.32;;;;;;;14.14;59.92;100489.59;5055395;28;20052;-59
2023/05/02 00:37:47;;;;;;;20.38;16.23;;;;;;;14.13;60.63;100487.13;5055244;28;20383;-58
2023/05/02 00:40:14;;;;;;;19.25;16.10;;;;;;;14.13;61.53;100498.34;5053312;28;20075;-58
2023/05/02 00:42:43;;;;;;;19.35;16.65;;;;;;;14.15;61.29;100496.88;5035974;28;20386;-58
2023/05/02 00:45:11;;;;;;;19.48;17.08;;;;;;;14.13;61.61;100510.38;5035859;28;20056;-57
2023/05/02 00:47:38;;;;;;;19.85;17.38;;;;;;;14.13;60.59;100509.53;5035523;28;20410;-58
2023/05/02 00:50:07;;;;;;;21.33;17.98;;;;;;;14.17;60.94;100504.91;5035789;28;20050;-57
2023/05/02 00:52:34;;;;;;;21.15;18.90;;;;;;;14.22;61.72;100513.13;5042633;28;20406;-57
2023/05/02 00:55:02;;;;;;;22.10;19.80;;;;;;;14.25;60.68;100498.44;5055333;28;20060;-58
2023/05/02 00:57:30;;;;;;;24.15;19.77;;;;;;;14.28;60.67;100503.38;5037364;28;20053;-58
2023/05/02 01:00:00;;;;;;;20.80;18.60;;;;;;;14.28;60.66;100503.38;5035310;28;20398;-57
2023/05/02 01:02:35;;;;;;;22.77;19.48;;;;;;;14.28;61.42;100508.13;5034795;28;20064;-58
2023/05/02 01:05:11;;;;;;;25.08;20.40;;;;;;;14.30;60.71;100508.63;5034745;28;20049;-58
2023/05/02 01:08:01;;;;;;;24.13;20.25;;;;;;;14.31;60.58;100511.09;5035054;28;20053;-58
2023/05/02 01:10:42;;;;;;;25.95;21.60;;;;;;;14.30;61.26;100520.66;5035469;28;20046;-58
2023/05/02 01:13:17;;;;;;;21.92;19.48;;;;;;;14.33;61.68;100514.38;5038562;28;20521;-59
2023/05/02 01:15:50;;;;;;;22.80;19.65;;;;;;;14.36;61.68;100512.88;5052401;28;20064;-58
2023/05/02 01:18:23;;;;;;;24.70;21.88;;;;;;;14.34;62.26;100516.03;5054077;28;20057;-58
2023/05/02 01:20:57;;;;;;;24.92;20.83;;;;;;;14.37;62.06;100520.94;5054878;28;20049;-58
2023/05/02 01:23:30;;;;;;;23.48;20.75;;;;;;;14.36;62.24;100512.88;5054267;28;20048;-57
2023/05/02 01:26:09;;;;;;;25.50;21.35;;;;;;;14.39;61.14;100524.22;5049608;28;20065;-58
2023/05/02 01:28:47;;;;;;;25.98;23.15;;;;;;;14.36;62.60;100522.13;5054495;28;20068;-57
2023/05/02 01:31:16;;;;;;;26.08;22.83;;;;;;;14.37;62.82;100522.94;5054430;28;20401;-58
2023/05/02 01:33:46;;;;;;;25.48;22.10;;;;;;;14.37;62.50;100525.75;5054132;28;20053;-58
2023/05/02 01:36:15;;;;;;;26.13;23.33;;;;;;;14.34;63.03;100532.84;5054158;28;20075;-58
2023/05/02 01:38:44;;;;;;;26.38;23.27;;;;;;;14.35;62.37;100533.66;5049226;28;20049;-58
2023/05/02 01:41:12;;;;;;;24.83;22.13;;;;;;;14.35;62.78;100528.88;5051604;28;20406;-58
2023/05/02 01:43:42;;;;;;;28.45;24.45;;;;;;;14.34;61.87;100537.59;5034470;28;20057;-58
2023/05/02 01:46:13;;;;;;;26.83;23.92;;;;;;;14.34;63.25;100535.66;5034396;28;20072;-58
2023/05/02 01:48:46;;;;;;;26.77;23.75;;;;;;;14.35;62.76;100540.06;5034277;28;20061;-58
2023/05/02 01:51:17;;;;;;;28.92;23.88;;;;;;;14.33;62.22;100539.59;5034120;28;20049;-58
2023/05/02 01:53:46;;;;;;;28.35;22.38;;;;;;;14.32;63.12;100543.56;5050050;28;20061;-57
2023/05/02 01:56:15;;;;;;;26.38;23.30;;;;;;;14.32;61.76;100540.75;5037728;28;20056;-58
2023/05/02 01:58:44;;;;;;;;;;;;;;;14.27;63.18;100551.34;5052950;28;20478;-57
2023/05/02 02:01:14;;;;;;;28.67;22.40;;;;;;;14.26;62.54;100546.88;5054117;28;19920;-58
2023/05/02 02:03:42;;;;;;;30.77;23.58;;;;;;;14.25;63.29;100556.44;5053533;28;20486;-57
2023/05/02 02:06:11;;;;;;;28.42;23.17;;;;;;;14.25;62.84;100557.28;5053788;28;20068;-59
2023/05/02 02:08:38;;;;;;;30.15;25.15;;;;;;;14.25;62.51;100562.88;5053395;28;20057;-59
2023/05/02 02:11:11;;;;;;;30.73;24.83;;;;;;;14.25;63.35;100562.06;5048393;28;20052;-59
2023/05/02 02:13:44;;;;;;;32.33;27.15;;;;;;;14.23;63.13;100569.97;5053588;28;20064;-58
2023/05/02 02:16:19;;;;;;;31.98;25.90;;;;;;;14.23;62.29;100565.19;5053576;28;20399;-58
2023/05/02 02:18:46;;;;;;;30.98;25.90;;;;;;;14.20;62.73;100572.28;5053493;28;20486;-58
2023/05/02 02:21:18;;;;;;;33.38;27.30;;;;;;;14.23;63.65;100581.19;5053474;28;20101;-58
2023/05/02 02:23:48;;;;;;;32.22;25.48;;;;;;;14.20;63.17;100586.31;5048558;28;20052;-58
2023/05/02 02:26:17;;;;;;;30.13;24.70;;;;;;;14.15;64.14;100574.44;5051534;28;20065;-58
2023/05/02 02:28:45;;;;;;;32.15;27.23;;;;;;;14.02;64.37;100582.72;5038829;28;20639;-58
2023/05/02 02:31:20;;;;;;;32.70;27.02;;;;;;;14.01;63.99;100583.09;5051068;28;20054;-58
2023/05/02 02:33:47;;;;;;;32.05;25.95;;;;;;;14.00;63.50;100584.22;5053205;28;20049;-58
2023/05/02 02:36:21;;;;;;;30.52;25.52;;;;;;;14.00;63.67;100584.22;5053410;28;20060;-59
2023/05/02 02:38:56;;;;;;;31.42;25.95;;;;;;;13.94;63.27;100585.56;5053842;28;20064;-59
2023/05/02 02:41:28;;;;;;;32.70;27.27;;;;;;;13.90;64.78;100593.84;5050954;28;20061;-60
2023/05/02 02:44:04;;;;;;;34.80;27.95;;;;;;;13.89;64.15;100599.75;5052419;28;20057;-59
2023/05/02 02:46:46;;;;;;;34.10;26.15;;;;;;;13.87;64.40;100599.28;5053119;28;20486;-59
2023/05/02 02:49:24;;;;;;;34.30;27.35;;;;;;;13.86;63.96;100595.66;5053015;28;20057;-59
2023/05/02 02:52:02;;;;;;;33.28;27.70;;;;;;;13.83;64.89;100595.50;5052896;28;20474;-59
2023/05/02 02:54:35;;;;;;;36.35;28.38;;;;;;;13.78;65.48;100605.72;5053105;28;20049;-59
2023/05/02 02:57:14;;;;;;;35.92;27.40;;;;;;;13.79;65.36;100601.75;5047730;28;20049;-59
2023/05/02 02:59:51;;;;;;;34.88;28.50;;;;;;;13.79;64.42;100607.34;5053063;28;20059;-58
2023/05/02 03:02:27;;;;;;;35.58;27.58;;;;;;;13.77;65.04;100604.09;5053103;28;20041;-59
2023/05/02 03:04:57;;;;;;;36.58;26.42;;;;;;;13.78;65.29;100600.13;5053122;28;20053;-58
2023/05/02 03:07:27;;;;;;;35.58;27.70;;;;;;;13.73;64.26;100613.47;5052492;28;20048;-59
2023/05/02 03:09:54;;;;;;;33.78;26.77;;;;;;;13.73;65.50;100622.69;5049045;28;20053;-59
2023/05/02 03:12:21;;;;;;;36.08;28.35;;;;;;;13.71;64.22;100618.56;5042404;28;20045;-59
2023/05/02 03:14:49;;;;;;;35.83;29.98;;;;;;;13.71;64.23;100622.22;5032909;28;20053;-59
2023/05/02 03:17:16;;;;;;;34.28;26.65;;;;;;;13.76;65.16;100626.81;5035940;28;20494;-59
2023/05/02 03:19:46;;;;;;;36.70;27.27;;;;;;;13.71;64.56;100624.16;5032461;28;20057;-59
2023/05/02 03:22:13;;;;;;;33.70;26.60;;;;;;;13.70;64.61;100625.34;5032774;28;20521;-58
2023/05/02 03:24:40;;;;;;;42.72;25.30;;;;;;;13.70;64.66;100620.56;5032999;28;20054;-59
2023/05/02 03:27:07;;;;;;;33.40;25.08;;;;;;;13.72;64.45;100623.84;5035290;28;20513;-58
2023/05/02 03:29:35;;;;;;;31.38;24.15;;;;;;;13.71;64.60;100633.41;5051132;28;20060;-58
2023/05/02 03:32:02;;;;;;;30.02;23.85;;;;;;;13.69;65.50;100621.72;5052462;28;20045;-59
2023/05/02 03:34:29;;;;;;;32.45;24.98;;;;;;;13.69;65.53;100632.06;5052393;28;20056;-59
2023/05/02 03:36:58;;;;;;;32.15;24.95;;;;;;;13.71;64.76;100633.41;5052681;28;20478;-59
2023/05/02 03:39:25;;;;;;;33.07;24.73;;;;;;;13.73;65.30;100635.84;5052803;28;20057;-59
2023/05/02 03:41:52;;;;;;;32.30;24.15;;;;;;;13.70;65.21;100640.16;5051696;28;21041;-59
2023/05/02 03:44:20;;;;;;;29.33;23.13;;;;;;;13.67;64.73;100638.03;5054915;28;20053;-58
2023/05/02 03:46:47;;;;;;;29.20;22.33;;;;;;;13.71;65.18;100649.34;5056053;28;20056;-58
2023/05/02 03:49:14;;;;;;;27.88;21.27;;;;;;;13.71;65.59;100644.59;5056351;28;20059;-58
2023/05/02 03:51:41;;;;;;;25.42;19.63;;;;;;;13.72;64.39;100646.22;5056434;28;20052;-58
2023/05/02 03:54:10;;;;;;;28.30;20.10;;;;;;;13.74;65.54;100654.31;5056350;28;20486;-58
2023/05/02 03:56:38;;;;;;;25.35;19.23;;;;;;;13.75;65.48;100655.94;5053848;28;20061;-58
2023/05/02 03:59:05;;;;;;;26.20;19.38;;;;;;;13.75;64.87;100647.53;5054307;28;20071;-58
2023/05/02 04:01:32;;;;;;;25.13;18.83;;;;;;;13.70;64.52;100651.34;5056489;28;20406;-58
2023/05/02 04:03:59;;;;;;;27.90;19.98;;;;;;;13.71;65.12;100647.41;5055895;28;20068;-58
2023/05/02 04:06:27;;;;;;;29.05;20.35;;;;;;;13.73;64.97;100659.09;5056064;28;20407;-58
2023/05/02 04:08:57;;;;;;;25.67;18.63;;;;;;;13.65;65.39;100661.88;5050842;28;20053;-58
2023/05/02 04:11:26;;;;;;;24.70;18.02;;;;;;;13.66;64.33;100669.94;5055938;28;20049;-58
2023/05/02 04:13:56;;;;;;;27.35;19.60;;;;;;;13.68;64.61;100662.03;5036810;28;20054;-58
2023/05/02 04:16:24;;;;;;;24.38;18.67;;;;;;;13.66;64.25;100664.34;5036027;28;20060;-59
2023/05/02 04:18:51;;;;;;;24.25;18.33;;;;;;;13.65;65.52;100659.06;5035770;28;20061;-58
2023/05/02 04:21:19;;;;;;;26.20;17.50;;;;;;;13.69;64.54;100660.06;5035719;28;20056;-59
2023/05/02 04:23:46;;;;;;;23.85;17.40;;;;;;;13.65;64.50;100662.72;5035979;28;20065;-58
2023/05/02 04:26:15;;;;;;;23.40;17.30;;;;;;;13.70;64.69;100664.53;5035564;28;20061;-58
2023/05/02 04:28:43;;;;;;;23.10;16.90;;;;;;;13.72;65.39;100673.41;5051079;28;20057;-58
2023/05/02 04:31:11;;;;;;;20.92;15.98;;;;;;;13.73;64.64;100664.69;5055008;28;20049;-58
2023/05/02 04:33:38;;;;;;;21.77;14.57;;;;;;;13.73;64.01;100678.69;5055044;28;20060;-58
2023/05/02 04:36:06;;;;;;;21.00;15.45;;;;;;;13.75;64.72;100678.34;5055258;28;20052;-59
2023/05/02 04:38:33;;;;;;;20.33;14.75;;;;;;;13.72;63.78;100685.44;5054909;28;20057;-58
2023/05/02 04:41:00;;;;;;;23.40;15.77;;;;;;;13.76;64.41;100682.78;5055013;28;20053;-59
2023/05/02 04:43:27;;;;;;;20.25;15.00;;;;;;;13.74;64.48;100696.31;5051237;28;20053;-58
2023/05/02 04:45:57;;;;;;;19.60;15.05;;;;;;;13.79;64.33;100701.72;5048719;28;20410;-59
2023/05/02 04:48:30;;;;;;;21.83;15.55;;;;;;;13.81;64.55;100700.22;5044482;28;20069;-58
2023/05/02 04:50:57;;;;;;;19.88;15.35;;;;;;;13.80;64.33;100704.19;5051783;28;20053;-58
2023/05/02 04:53:24;;;;;;;20.33;15.32;;;;;;;13.81;65.11;100699.41;5049355;28;20049;-59
2023/05/02 04:55:53;;;;;;;27.05;16.23;;;;;;;13.82;64.99;100712.28;5050113;28;20052;-58
2023/05/02 04:58:20;;;;;;;20.65;15.38;;;;;;;13.83;64.62;100713.09;5035297;28;20054;-59
2023/05/02 05:00:50;;;;;;;19.30;13.52;;;;;;;13.83;64.78;100718.69;5034580;28;20524;-58
2023/05/02 05:03:18;;;;;;;21.92;14.73;;;;;;;13.81;65.04;100719.00;5049009;28;20049;-58
2023/05/02 05:05:46;;;;;;;19.33;14.20;;;;;;;13.84;64.76;100723.13;5055217;28;20049;-59
2023/05/02 05:08:13;;;;;;;20.95;14.32;;;;;;;13.85;64.60;100721.97;5055202;28;20716;-58
2023/05/02 05:10:40;;;;;;;20.75;15.07;;;;;;;13.83;65.94;100722.31;5040196;28;20513;-58
2023/05/02 05:13:08;;;;;;;18.80;13.80;;;;;;;13.78;65.62;100731.69;5041873;28;20061;-58
2023/05/02 05:15:35;;;;;;;22.20;15.02;;;;;;;13.77;65.66;100744.06;5034861;28;20418;-58
2023/05/02 05:18:03;;;;;;;16.90;13.68;;;;;;;13.77;66.35;100738.47;5032296;28;20056;-58
2023/05/02 05:20:32;;;;;;;21.27;15.18;;;;;;;13.75;67.08;100739.94;5037324;28;20060;-59
2023/05/02 05:22:59;;;;;;;18.02;13.98;;;;;;;13.71;67.67;100745.38;5037796;28;20042;-58
2023/05/02 05:25:26;;;;;;;19.70;14.65;;;;;;;13.71;67.86;100753.78;5054483;28;20061;-58
2023/05/02 05:27:55;;;;;;;21.45;15.45;;;;;;;13.72;67.08;100758.22;5039599;28;20050;-59
2023/05/02 05:30:22;;;;;;;21.83;16.42;;;;;;;13.69;67.90;100758.88;5043090;28;20064;-58
2023/05/02 05:32:49;;;;;;;23.20;16.38;;;;;;;13.71;68.58;100756.59;5054452;28;20394;-58
2023/05/02 05:35:16;;;;;;;20.90;14.55;;;;;;;13.73;68.53;100764.63;5054041;28;20056;-58
2023/05/02 05:37:45;;;;;;;19.85;15.70;;;;;;;13.70;68.88;100768.91;5054028;28;20053;-58
2023/05/02 05:40:13;;;;;;;21.25;16.58;;;;;;;13.71;67.96;100772.53;5040600;28;20049;-58
2023/05/02 05:42:40;;;;;;;23.95;17.98;;;;;;;13.70;69.18;100771.72;5040348;28;20052;-58
2023/05/02 05:45:09;;;;;;;25.05;18.35;;;;;;;13.73;68.86;100773.88;5053728;28;20474;-58
2023/05/02 05:47:36;;;;;;;25.10;18.20;;;;;;;13.77;68.10;100774.88;5054212;28;20080;-58
2023/05/02 05:50:04;;;;;;;26.58;19.00;;;;;;;13.79;69.05;100785.72;5054271;28;20057;-60
2023/05/02 05:52:31;;;;;;;25.05;18.20;;;;;;;13.83;68.65;100785.88;5045504;28;20049;-58
2023/05/02 05:54:59;;;;;;;25.00;17.55;;;;;;;13.86;68.83;100780.47;5048598;28;20379;-58
2023/05/02 05:57:27;;;;;;;20.52;15.93;;;;;;;13.90;68.63;100786.22;5051603;28;20053;-58
2023/05/02 05:59:54;;;;;;;21.48;16.63;;;;;;;13.90;67.90;100786.22;5053879;28;20075;-58
2023/05/02 06:02:22;;;;;;;21.40;16.30;;;;;;;13.94;67.45;100793.66;5053122;28;20501;-58
2023/05/02 06:04:49;;;;;;;20.65;15.90;;;;;;;13.92;69.02;100792.31;5053229;28;20061;-58
2023/05/02 06:07:16;;;;;;;16.95;14.45;;;;;;;13.90;69.28;100794.59;5053995;28;20057;-58
2023/05/02 06:09:43;;;;;;;16.42;12.32;;;;;;;13.84;68.24;100798.72;5053686;28;20379;-57
2023/05/02 06:12:12;;;;;;;11.85;10.35;;;;;;;13.86;68.79;100802.03;5047525;28;20041;-57
2023/05/02 06:14:39;;;;;;;11.93;9.73;;;;;;;13.86;69.38;100808.47;5032893;28;20053;-57
2023/05/02 06:17:07;;;;;;;11.30;8.88;;;;;;;13.86;68.99;100808.47;5042168;28;20060;-58
2023/05/02 06:19:34;;;;;;;9.50;7.97;;;;;;;13.86;67.52;100818.81;5039350;28;20053;-58
2023/05/02 06:22:01;;;;;;;10.80;8.25;;;;;;;13.75;67.79;100824.75;5042941;28;20049;-58
2023/05/02 06:24:29;;;;;;;9.43;7.72;;;;;;;13.79;69.31;100817.31;5036910;28;20057;-58
2023/05/02 06:26:56;;;;;;;10.35;7.93;;;;;;;13.77;68.46;100825.25;5036688;28;20056;-58
2023/05/02 06:29:24;;;;;;;11.43;7.68;;;;;;;13.73;68.40;100824.28;5051372;28;20409;-58
2023/05/02 06:31:55;;;;;;;9.48;7.53;;;;;;;13.69;69.60;100819.63;5049516;28;20049;-58
2023/05/02 06:34:22;;;;;;;8.88;5.35;;;;;;;13.62;69.82;100825.72;5050141;28;20056;-50
2023/05/02 06:36:54;;;;;;;6.55;5.43;;;;;;;13.76;70.87;100832.00;5037611;28;20049;-49
2023/05/02 06:39:21;;;;;;;6.68;5.10;;;;;;;13.73;69.58;100838.25;5048334;28;20056;-51
2023/05/02 06:41:48;;;;;;;6.43;4.22;;;;;;;13.72;68.46;100844.19;5050034;28;20053;-52
2023/05/02 06:44:16;;;;;;;6.80;4.35;;;;;;;13.79;66.53;100852.91;5049806;28;20056;-49
2023/05/02 06:46:44;;;;;;;6.57;3.90;;;;;;;14.04;67.20;100847.69;5041049;28;20441;-57
2023/05/02 06:49:11;;;;;;;5.22;3.97;;;;;;;14.19;65.30;100861.19;5045288;28;20413;-58
2023/05/02 06:51:39;;;;;;;6.43;3.70;;;;;;;14.41;65.21;100865.81;5051455;28;20057;-58
2023/05/02 06:54:07;;;;;;;6.18;3.25;;;;;;;14.60;63.36;100866.31;5052150;28;20072;-57
2023/05/02 06:56:35;;;;;;;3.90;3.08;;;;;;;14.75;63.33;100866.94;5052704;28;20490;-57
2023/05/02 06:59:02;;;;;;;4.68;3.22;;;;;;;14.86;62.04;100873.84;5046921;28;20064;-57
2023/05/02 07:01:29;;;;;;;5.20;3.38;;;;;;;14.88;62.35;100876.31;5039173;28;20082;-57
2023/05/02 07:03:58;;;;;;;4.40;3.08;;;;;;;15.00;61.74;100868.84;5036116;28;20048;-57
2023/05/02 07:06:25;;;;;;;9.15;3.28;;;;;;;15.19;61.07;100879.69;5032265;28;20470;-57
2023/05/02 07:08:53;;;;;;;5.88;3.00;;;;;;;15.22;60.35;100880.97;5032769;28;20060;-57
2023/05/02 07:11:22;;;;;;;5.95;3.50;;;;;;;15.27;60.08;100883.63;5038517;28;20060;-57
2023/05/02 07:13:49;;;;;;;6.43;3.15;;;;;;;15.28;60.81;100887.25;5044151;28;20056;-57
2023/05/02 07:16:17;;;;;;;6.13;3.03;;;;;;;15.29;60.95;100897.31;5051892;28;20059;-58
2023/05/02 07:18:44;;;;;;;5.88;2.97;;;;;;;15.41;60.11;100892.66;5050591;28;20414;-57
2023/05/02 07:21:13;;;;;;;5.53;3.30;;;;;;;15.43;59.81;100901.56;5052847;28;20053;-58
2023/05/02 07:23:40;;;;;;;5.05;3.03;;;;;;;15.36;59.15;100909.66;5052608;28;20064;-57
2023/05/02 07:26:08;;;;;;;5.05;3.30;;;;;;;15.39;59.53;100916.56;5052583;28;20056;-58
2023/05/02 07:28:35;;;;;;;6.13;3.30;;;;;;;15.37;59.37;100911.31;5047848;28;20053;-58
2023/05/02 07:31:02;;;;;;;4.20;3.10;;;;;;;15.39;58.84;100913.78;5043811;28;20490;-58
2023/05/02 07:33:29;;;;;;;5.45;3.03;;;;;;;15.50;58.86;100923.47;5036830;28;20060;-58
2023/05/02 07:35:57;;;;;;;6.15;3.45;;;;;;;15.58;59.46;100913.34;5051825;28;20053;-60
2023/05/02 07:38:27;;;;;;;5.38;3.70;;;;;;;15.63;59.35;100918.81;5043587;28;20479;-58
2023/05/02 07:40:58;;;;;;;5.45;3.42;;;;;;;15.70;58.73;100929.50;5032658;28;20054;-58
2023/05/02 07:43:25;;;;;;;4.55;2.83;;;;;;;15.80;58.08;100926.34;5037401;28;20056;-58
2023/05/02 07:45:52;;;;;;;7.70;3.38;;;;;;;15.81;57.31;100930.78;5033150;28;20060;-58
2023/05/02 07:48:20;;;;;;;5.43;3.45;;;;;;;15.82;57.71;100932.44;5046567;28;20052;-58
2023/05/02 07:50:47;;;;;;;6.40;3.10;;;;;;;15.77;57.34;100927.84;5041820;28;20048;-58
2023/05/02 07:53:14;;;;;;;6.60;3.75;;;;;;;15.71;57.29;100937.59;5031891;28;20054;-58
2023/05/02 07:55:43;;;;;;;4.57;3.22;;;;;;;15.49;58.37;100941.47;5044342;28;20053;-58
2023/05/02 07:58:10;;;;;;;4.68;3.30;;;;;;;15.37;58.29;100949.78;5046177;28;20058;-58
2023/05/02 08:00:38;;;;;;;7.95;4.22;;;;;;;15.28;59.08;100949.00;5032389;28;20494;-58
2023/05/02 08:03:06;;;;;;;7.70;3.00;;;;;;;15.18;59.00;100950.16;5032122;28;20056;-58
2023/05/02 08:05:33;;;;;;;5.15;3.00;;;;;;;15.14;58.84;100951.97;5039313;28;20065;-58
2023/05/02 08:08:01;;;;;;;5.63;2.85;;;;;;;14.94;58.26;100959.94;5046633;28;20421;-58
2023/05/02 08:10:28;;;;;;;5.43;2.90;;;;;;;14.96;59.06;100968.84;5035036;28;20053;-58
2023/05/02 08:12:57;;;;;;;4.47;2.60;;;;;;;14.81;59.95;100960.97;5043438;28;20064;-58
2023/05/02 08:15:24;;;;;;;6.03;3.40;;;;;;;14.68;60.71;100973.16;5045857;28;20056;-58
2023/05/02 08:17:51;;;;;;;5.43;3.20;;;;;;;14.64;60.53;100969.38;5052015;28;20517;-58
2023/05/02 08:20:19;;;;;;;6.85;3.80;;;;;;;14.47;61.05;100979.41;5043388;28;20059;-58
2023/05/02 08:22:46;;;;;;;6.65;3.70;;;;;;;14.30;61.68;100982.16;5049388;28;20413;-58
2023/05/02 08:25:13;;;;;;;4.50;4.00;;;;;;;13.92;61.67;101003.19;5047082;28;20057;-58
2023/05/02 08:27:41;;;;;;;2.30;1.60;;;;;;;13.56;61.66;101011.75;5045624;28;20494;-58
2023/05/02 08:30:10;;;;;;;2.47;1.63;;;;;;;13.42;62.20;101013.78;5043711;28;20419;-57
2023/05/02 08:32:37;;;;;;;3.80;1.40;;;;;;;13.25;62.78;101017.28;5033486;28;20053;-57
2023/05/02 08:35:05;;;;;;;2.60;1.60;;;;;;;13.05;62.27;101019.47;5039958;28;20060;-57
2023/05/02 08:37:33;;;;;;;1.90;1.42;;;;;;;12.93;62.76;101028.41;5040077;28;20417;-57
2023/05/02 08:40:00;;;;;;;2.28;1.40;;;;;;;12.95;62.63;101036.50;5044382;28;20056;-56
2023/05/02 08:42:28;;;;;;;3.28;2.10;;;;;;;12.73;63.84;101040.09;5041166;28;20055;-57
2023/05/02 08:44:56;;;;;;;4.10;2.35;;;;;;;12.64;63.93;101048.41;5048577;28;20482;-57
2023/05/02 08:47:27;;;;;;;3.42;2.30;;;;;;;12.69;63.37;101055.84;5046789;28;20056;-61
2023/05/02 08:49:56;;;;;;;2.72;2.25;;;;;;;12.72;63.11;101055.19;5052506;28;20057;-61
2023/05/02 08:52:24;;;;;;;3.90;2.30;;;;;;;12.78;62.88;101067.91;5055324;28;20060;-62
2023/05/02 08:54:53;;;;;;;6.55;2.67;;;;;;;12.83;62.30;101064.16;5040829;28;20514;-62
2023/05/02 08:57:20;;;;;;;5.57;2.50;;;;;;;12.87;61.90;101063.25;5034471;28;20498;-63
2023/05/02 08:59:48;;;;;;;5.10;2.70;;;;;;;12.89;61.94;101065.72;5040491;28;20054;-64
2023/05/02 09:02:29;;;;;;;8.48;2.60;;;;;;;12.85;61.37;101076.72;5034765;28;20053;-62
2023/05/02 09:05:00;;;;;;;4.85;2.70;;;;;;;12.90;62.03;101073.78;5035113;28;20061;-63
2023/05/02 09:07:28;;;;;;;5.28;2.50;;;;;;;12.99;60.76;101077.47;5035033;28;20053;-60
2023/05/02 09:09:56;;;;;;;6.35;2.65;;;;;;;13.12;61.19;101086.97;5035637;28;20052;-61
2023/05/02 09:12:26;;;;;;;5.47;2.50;;;;;;;13.26;61.33;101092.50;5035986;28;20056;-61
2023/05/02 09:15:12;;;;;;;4.55;2.80;;;;;;;13.28;61.11;101095.00;5050044;28;20067;-61
2023/05/02 09:17:43;;;;;;;5.07;2.97;;;;;;;13.35;60.84;101106.59;5052237;28;20509;-61
2023/05/02 09:20:11;;;;;;;7.72;3.58;;;;;;;13.39;59.33;101114.03;5055147;28;20065;-61
2023/05/02 09:22:39;;;;;;;9.20;3.90;;;;;;;13.24;59.75;101111.56;5054454;28;20064;-61
2023/05/02 09:25:07;;;;;;;9.75;4.25;;;;;;;13.37;60.76;101113.50;5054904;28;20048;-61
2023/05/02 09:27:51;;;;;;;7.45;4.68;;;;;;;13.53;60.94;101107.56;5053452;28;20057;-61
2023/05/02 09:30:20;;;;;;;9.38;5.75;;;;;;;13.71;59.24;101117.72;5054046;28;20504;-61
2023/05/02 09:32:51;;;;;;;12.18;7.30;;;;;;;13.77;59.54;101110.84;5054342;28;20056;-60
2023/05/02 09:35:22;;;;;;;10.95;6.30;;;;;;;13.72;58.07;101121.34;5040532;28;20045;-61
2023/05/02 09:37:51;;;;;;;8.52;6.32;;;;;;;13.60;58.39;101124.72;5034499;28;20057;-61
2023/05/02 09:40:19;;;;;;;8.18;5.80;;;;;;;13.63;59.61;101124.09;5033736;28;20049;-61
2023/05/02 09:42:46;;;;;;;10.65;5.57;;;;;;;13.75;59.03;101124.34;5033871;28;20065;-61
2023/05/02 09:45:21;;;;;;;8.38;6.00;;;;;;;13.80;58.19;101123.38;5051781;28;20056;-61
2023/05/02 09:47:50;;;;;;;8.60;5.57;;;;;;;13.75;59.11;101127.13;5054642;28;20063;-61
2023/05/02 09:50:40;;;;;;;9.00;5.32;;;;;;;13.66;59.06;101134.63;5054112;28;20413;-61
2023/05/02 09:53:08;;;;;;;;;;;;;;;13.56;59.79;101141.31;5054225;28;20076;-61
2023/05/02 09:55:35;;;;;;;6.13;3.40;;;;;;;13.49;59.31;101146.53;5054020;28;19921;-62
2023/05/02 09:58:03;;;;;;;5.55;3.50;;;;;;;13.38;58.43;101157.16;5048208;28;20060;-61
2023/05/02 10:00:42;;;;;;;7.38;4.30;;;;;;;13.18;58.59;101154.81;5037689;28;20067;-62
2023/05/02 10:03:11;;;;;;;6.50;4.72;;;;;;;13.09;59.08;101154.72;5037985;28;20045;-61
2023/05/02 10:05:39;;;;;;;6.28;4.10;;;;;;;13.10;59.16;101158.34;5040228;28;20518;-62
2023/05/02 10:08:09;;;;;;;18.75;6.00;;;;;;;13.12;60.04;101161.66;5031902;28;20052;-61
2023/05/02 10:10:37;;;;;;;6.47;3.85;;;;;;;13.16;59.84;101166.31;5041731;28;20052;-57
2023/05/02 10:13:06;;;;;;;6.67;4.30;;;;;;;13.28;59.15;101167.75;5044148;28;20505;-57
2023/05/02 10:15:34;;;;;;;5.78;3.53;;;;;;;13.36;58.52;101170.63;5037739;28;20052;-57
2023/05/02 10:18:09;;;;;;;8.63;4.28;;;;;;;13.47;58.29;101171.22;5046270;28;20521;-57
2023/05/02 10:20:43;;;;;;;6.80;3.67;;;;;;;13.57;57.88;101175.75;5053695;28;20064;-57
2023/05/02 10:23:12;;;;;;;6.75;3.30;;;;;;;13.70;57.43;101174.84;5053107;28;20053;-57
2023/05/02 10:25:40;;;;;;;6.78;3.65;;;;;;;13.83;57.40;101175.09;5053703;28;20049;-61
2023/05/02 10:28:07;;;;;;;6.72;4.13;;;;;;;13.89;56.74;101169.03;5048150;28;20049;-61
2023/05/02 10:30:35;;;;;;;7.30;4.35;;;;;;;13.94;55.45;101171.72;5051334;28;20052;-62
2023/05/02 10:33:03;;;;;;;11.68;7.03;;;;;;;14.05;55.92;101168.63;5053160;28;20501;-62
2023/05/02 10:35:31;;;;;;;9.43;5.57;;;;;;;14.06;55.22;101176.72;5036181;28;20091;-62
2023/05/02 10:38:11;;;;;;;8.60;7.43;;;;;;;14.10;54.67;101172.13;5034885;28;20054;-59
2023/05/02 10:40:42;;;;;;;12.68;9.35;;;;;;;14.09;55.70;101176.09;5037082;28;20077;-57
2023/05/02 10:43:15;;;;;;;12.38;9.10;;;;;;;13.99;54.86;101174.38;5043286;28;20045;-58
2023/05/02 10:45:43;;;;;;;11.40;8.63;;;;;;;13.86;55.50;101168.84;5038905;28;20103;-58
2023/05/02 10:48:14;;;;;;;12.30;7.47;;;;;;;13.79;55.92;101178.53;5030792;28;20414;-57
2023/05/02 10:50:47;;;;;;;9.27;6.50;;;;;;;13.65;54.50;101174.13;5036412;28;20045;-57
2023/05/02 10:53:27;;;;;;;9.43;4.95;;;;;;;13.68;54.37;101171.53;5041912;28;20057;-56
2023/05/02 10:56:15;;;;;;;11.35;4.10;;;;;;;13.59;53.48;101179.06;5036342;28;20060;-62
2023/05/02 10:58:43;;;;;;;5.65;3.60;;;;;;;13.60;54.21;101183.50;5033552;28;20438;-59
2023/05/02 11:01:33;;;;;;;6.47;3.78;;;;;;;13.67;53.45;101186.69;5033107;28;20049;-61
2023/05/02 11:04:05;;;;;;;;;;;;;;;13.68;53.81;101188.34;5038746;28;20068;-60
2023/05/02 11:06:42;;;;;;;8.55;3.70;;;;;;;13.77;52.94;101186.44;5043957;28;19920;-61
2023/05/02 11:09:35;;;;;;;7.85;3.30;;;;;;;13.70;54.12;101185.22;5044541;28;20045;-57
2023/05/02 11:12:04;;;;;;;9.07;3.60;;;;;;;13.80;53.21;101183.00;5032024;28;20068;-57
2023/05/02 11:14:47;;;;;;;7.30;3.63;;;;;;;13.85;54.46;101190.44;5043722;28;20068;-57
2023/05/02 11:17:15;;;;;;;8.55;3.95;;;;;;;14.01;53.73;101188.91;5043967;28;20394;-58
2023/05/02 11:20:28;;;;;;;7.18;4.10;;;;;;;14.15;54.12;101191.63;5045918;28;20061;-57
2023/05/02 11:23:25;;;;;;;7.95;4.75;;;;;;;14.40;53.11;101180.84;5048153;28;20053;-56
2023/05/02 11:25:56;;;;;;;10.77;5.30;;;;;;;14.69;52.02;101199.16;5046497;28;20049;-57
2023/05/02 11:28:46;;;;;;;10.05;5.18;;;;;;;14.76;51.94;101188.25;5047046;28;20060;-57